Time;durP1;ratioP1;P1;durP2;ratioP2;P2;SDS_P1;SDS_P2;PMS_P1;PMS_P2;Temp;Humidity;BMP_temperature;BMP_pressure;BME280_temperature;BME280_humidity;BME280_pressure;Samples;Min_cycle;Max_cycle;Signal;HPM_P1;HPM_P2
2023/07/08 00:00:34;;;;;;;7.13;5.68;;;;;;;-140.66;100.00;55571.53;5114182;28;20028;-75
2023/07/08 00:03:20;;;;;;;6.13;5.10;;;;;;;-140.66;100.00;55571.53;5114316;28;20041;-75
2023/07/08 00:06:21;;;;;;;8.35;5.35;;;;;;;-140.66;100.00;55571.53;5114735;28;20067;-75
2023/07/08 00:09:11;;;;;;;7.10;5.22;;;;;;;-140.66;100.00;55571.53;5114609;28;20024;-76
2023/07/08 00:11:57;;;;;;;9.07;5.57;;;;;;;-140.66;100.00;55571.53;5114527;28;20058;-75
2023/07/08 00:14:43;;;;;;;10.43;5.40;;;;;;;-140.66;100.00;55571.53;5100086;28;20031;-75
2023/07/08 00:17:28;;;;;;;6.43;4.78;;;;;;;-140.66;100.00;55571.53;5114705;28;20033;-75
2023/07/08 00:20:19;;;;;;;9.27;5.07;;;;;;;-140.66;100.00;55571.53;5113596;28;20119;-75
2023/07/08 00:23:05;;;;;;;9.75;5.05;;;;;;;-140.66;100.00;55571.53;5099629;28;20031;-75
2023/07/08 00:25:51;;;;;;;5.85;5.25;;;;;;;-140.66;100.00;55571.53;5114139;28;20074;-75
2023/07/08 00:28:37;;;;;;;9.05;5.05;;;;;;;-140.66;100.00;55571.53;5114546;28;20031;-75
2023/07/08 00:31:25;;;;;;;9.18;5.25;;;;;;;-140.66;100.00;55571.53;5114754;28;20097;-76
2023/07/08 00:34:11;;;;;;;7.03;5.00;;;;;;;-140.66;100.00;55571.53;5113990;28;20042;-75
2023/07/08 00:36:56;;;;;;;6.47;4.93;;;;;;;-140.66;100.00;55571.53;5113873;28;20460;-75
2023/07/08 00:39:42;;;;;;;6.45;4.88;;;;;;;-140.66;100.00;55571.53;5114546;28;20042;-75
2023/07/08 00:42:29;;;;;;;7.50;4.85;;;;;;;-140.66;100.00;55571.53;5114852;28;20103;-75
2023/07/08 00:45:30;;;;;;;10.15;5.20;;;;;;;-140.66;100.00;55571.53;5100058;28;20031;-75
2023/07/08 00:48:22;;;;;;;8.85;5.22;;;;;;;-140.66;100.00;55571.53;5114244;28;20024;-74
2023/07/08 00:51:10;;;;;;;8.30;5.15;;;;;;;-140.66;100.00;55571.53;5099186;28;20028;-74
2023/07/08 00:53:56;;;;;;;6.93;5.45;;;;;;;-140.66;100.00;55571.53;5114081;28;20067;-75
2023/07/08 00:57:02;;;;;;;5.15;4.65;;;;;;;-140.66;100.00;55571.53;5114582;28;20502;-74
2023/07/08 01:00:10;;;;;;;9.32;4.97;;;;;;;-140.66;100.00;55571.53;5099394;28;20035;-75
2023/07/08 01:02:57;;;;;;;7.22;5.30;;;;;;;-140.66;100.00;55571.53;5114192;28;20038;-75
2023/07/08 01:05:43;;;;;;;7.97;5.50;;;;;;;-140.66;100.00;55571.53;5114149;28;20036;-75
2023/07/08 01:08:30;;;;;;;6.65;4.95;;;;;;;-140.66;100.00;55571.53;5113179;28;20344;-75
2023/07/08 01:11:16;;;;;;;6.57;5.05;;;;;;;-140.66;100.00;55571.53;5097588;28;20096;-74
2023/07/08 01:14:04;;;;;;;6.32;5.45;;;;;;;-140.66;100.00;55571.53;5114508;28;20024;-75
2023/07/08 01:16:51;;;;;;;9.45;4.93;;;;;;;-140.66;100.00;55571.53;5098710;28;20035;-74
2023/07/08 01:19:38;;;;;;;7.63;5.60;;;;;;;-140.66;100.00;55571.53;5117336;28;20052;-74
2023/07/08 01:22:23;;;;;;;10.15;5.22;;;;;;;-140.66;100.00;55571.53;5104171;28;20027;-75
2023/07/08 01:25:11;;;;;;;7.70;5.03;;;;;;;-140.66;100.00;55571.53;5117609;28;20089;-75
2023/07/08 01:27:57;;;;;;;9.50;5.60;;;;;;;-140.66;100.00;55571.53;5118559;28;20039;-75
2023/07/08 01:30:44;;;;;;;6.72;4.90;;;;;;;-140.66;100.00;55571.53;5116771;28;20031;-74
2023/07/08 01:33:30;;;;;;;7.45;4.72;;;;;;;-140.66;100.00;55571.53;5117233;28;20027;-74
2023/07/08 01:36:15;;;;;;;5.93;5.10;;;;;;;-140.66;100.00;55571.53;5118169;28;20024;-75
2023/07/08 01:39:02;;;;;;;7.68;5.07;;;;;;;-140.66;100.00;55571.53;5117445;28;20038;-74
2023/07/08 01:41:48;;;;;;;8.48;5.72;;;;;;;-140.66;100.00;55571.53;5116602;28;20122;-76
2023/07/08 01:44:36;;;;;;;8.48;5.85;;;;;;;-140.66;100.00;55571.53;5117540;28;20031;-74
2023/07/08 01:47:22;;;;;;;11.70;5.80;;;;;;;-140.66;100.00;55571.53;5102155;28;20024;-74
2023/07/08 01:50:10;;;;;;;8.27;5.43;;;;;;;-140.66;100.00;55571.53;5116730;28;20359;-74
2023/07/08 01:52:59;;;;;;;11.88;5.47;;;;;;;-140.66;100.00;55571.53;5102218;28;20051;-75
2023/07/08 01:55:44;;;;;;;8.05;5.50;;;;;;;-140.66;100.00;55571.53;5118066;28;20061;-74
2023/07/08 01:58:30;;;;;;;9.77;6.07;;;;;;;-140.66;100.00;55571.53;5102858;28;20118;-75
2023/07/08 02:01:16;;;;;;;8.55;5.90;;;;;;;-140.66;100.00;55571.53;5116947;28;20472;-75
2023/07/08 02:04:02;;;;;;;12.27;6.00;;;;;;;-140.66;100.00;55571.53;5117676;28;20035;-75
2023/07/08 02:06:56;;;;;;;9.02;5.38;;;;;;;-140.66;100.00;55571.53;5116964;28;20085;-75
2023/07/08 02:09:41;;;;;;;8.57;6.22;;;;;;;-140.66;100.00;55571.53;5116380;28;20102;-75
2023/07/08 02:12:27;;;;;;;9.75;5.97;;;;;;;-140.66;100.00;55571.53;5116499;28;20110;-75
2023/07/08 02:15:13;;;;;;;9.50;6.35;;;;;;;-140.66;100.00;55571.53;5115417;28;20110;-75
2023/07/08 02:17:59;;;;;;;10.30;6.70;;;;;;;-140.66;100.00;55571.53;5116685;28;20020;-75
2023/07/08 02:20:45;;;;;;;7.70;6.03;;;;;;;-140.66;100.00;55571.53;5115301;28;20051;-76
2023/07/08 02:23:31;;;;;;;9.85;7.53;;;;;;;-140.66;100.00;55571.53;5116638;28;20032;-76
2023/07/08 02:26:17;;;;;;;11.65;7.53;;;;;;;-140.66;100.00;55571.53;5116173;28;20031;-75
2023/07/08 02:29:03;;;;;;;11.25;7.35;;;;;;;-140.66;100.00;55571.53;5115551;28;20024;-76
2023/07/08 02:31:49;;;;;;;12.63;7.13;;;;;;;-140.66;100.00;55571.53;5115938;28;20110;-76
2023/07/08 02:34:35;;;;;;;13.63;7.78;;;;;;;-140.66;100.00;55571.53;5116017;28;20038;-75
2023/07/08 02:37:20;;;;;;;16.90;7.78;;;;;;;-140.66;100.00;55571.53;5115971;28;20031;-75
2023/07/08 02:40:07;;;;;;;11.25;7.60;;;;;;;-140.66;100.00;55571.53;5101089;28;20019;-75
2023/07/08 02:42:53;;;;;;;11.63;8.00;;;;;;;-140.66;100.00;55571.53;5116301;28;20363;-75
2023/07/08 02:45:38;;;;;;;10.70;7.72;;;;;;;-140.66;100.00;55571.53;5101026;28;20516;-75
2023/07/08 02:48:24;;;;;;;14.40;8.20;;;;;;;-140.66;100.00;55571.53;5115585;28;20444;-75
2023/07/08 02:51:10;;;;;;;10.95;7.20;;;;;;;-140.66;100.00;55571.53;5100900;28;20028;-74
2023/07/08 02:53:56;;;;;;;12.85;7.95;;;;;;;-140.66;100.00;55571.53;5115319;28;20510;-74
2023/07/08 02:56:41;;;;;;;14.20;8.30;;;;;;;-140.66;100.00;55571.53;5100110;28;20525;-74
2023/07/08 02:59:28;;;;;;;11.13;8.73;;;;;;;-140.66;100.00;55571.53;5114498;28;20045;-74
2023/07/08 03:02:14;;;;;;;17.35;9.23;;;;;;;-140.66;100.00;55571.53;5115202;28;20027;-75
2023/07/08 03:05:00;;;;;;;13.98;8.57;;;;;;;-140.66;100.00;55571.53;5115981;28;20033;-75
2023/07/08 03:07:46;;;;;;;12.07;9.32;;;;;;;-140.66;100.00;55571.53;5100833;28;20034;-75
2023/07/08 03:10:32;;;;;;;9.73;8.20;;;;;;;-140.66;100.00;55571.53;5114963;28;20089;-75
2023/07/08 03:13:17;;;;;;;12.85;8.60;;;;;;;-140.66;100.00;55571.53;5126493;28;20114;-74
2023/07/08 03:16:12;;;;;;;10.15;8.10;;;;;;;-140.66;100.00;55571.53;5110508;28;20024;-75
2023/07/08 03:18:58;;;;;;;13.98;7.85;;;;;;;-140.66;100.00;55571.53;5100854;28;20054;-74
2023/07/08 03:21:43;;;;;;;13.23;8.85;;;;;;;-140.66;100.00;55571.53;5122950;28;20016;-73
2023/07/08 03:24:29;;;;;;;11.30;8.70;;;;;;;-140.66;100.00;55571.53;5115543;28;20027;-74
2023/07/08 03:27:16;;;;;;;12.02;7.75;;;;;;;-140.66;100.00;55571.53;5116152;28;20047;-74
2023/07/08 03:30:05;;;;;;;12.60;8.30;;;;;;;-140.66;100.00;55571.53;5114891;28;20037;-74
2023/07/08 03:32:50;;;;;;;14.95;8.27;;;;;;;-140.66;100.00;55571.53;5113161;28;20038;-74
2023/07/08 03:35:38;;;;;;;10.77;8.38;;;;;;;-140.66;100.00;55571.53;5115310;28;20023;-74
2023/07/08 03:38:24;;;;;;;11.00;8.75;;;;;;;-140.66;100.00;55571.53;5116206;28;20031;-72
2023/07/08 03:41:09;;;;;;;11.50;9.27;;;;;;;-140.66;100.00;55571.53;5125224;28;20452;-74
2023/07/08 03:43:55;;;;;;;14.77;9.93;;;;;;;-140.66;100.00;55571.53;5116125;28;20451;-74
2023/07/08 03:46:43;;;;;;;11.75;9.00;;;;;;;-140.66;100.00;55571.53;5114384;28;20023;-74
2023/07/08 03:49:29;;;;;;;12.55;9.35;;;;;;;-140.66;100.00;55571.53;5112747;28;20038;-74
2023/07/08 03:52:16;;;;;;;14.80;8.77;;;;;;;-140.66;100.00;55571.53;5115123;28;20028;-74
2023/07/08 03:55:03;;;;;;;14.45;9.10;;;;;;;-140.66;100.00;55571.53;5114759;28;20031;-74
2023/07/08 03:57:49;;;;;;;11.73;9.10;;;;;;;-140.66;100.00;55571.53;5115779;28;20051;-74
2023/07/08 04:00:34;;;;;;;13.25;8.75;;;;;;;-140.66;100.00;55571.53;5114133;28;20038;-75
2023/07/08 04:03:20;;;;;;;13.75;9.68;;;;;;;-140.66;100.00;55571.53;5100255;28;20057;-74
2023/07/08 04:06:06;;;;;;;15.25;10.48;;;;;;;-140.66;100.00;55571.53;5099248;28;20024;-74
2023/07/08 04:08:52;;;;;;;12.65;9.40;;;;;;;-140.66;100.00;55571.53;5113126;28;20087;-74
2023/07/08 04:11:38;;;;;;;12.80;9.23;;;;;;;-140.66;100.00;55571.53;5113972;28;20436;-74
2023/07/08 04:14:24;;;;;;;11.82;9.40;;;;;;;-140.66;100.00;55571.53;5114879;28;20032;-74
2023/07/08 04:17:11;;;;;;;14.43;9.32;;;;;;;-140.66;100.00;55571.53;5098435;28;20019;-75
2023/07/08 04:19:56;;;;;;;11.45;8.90;;;;;;;-140.66;100.00;55571.53;5114845;28;20039;-75
2023/07/08 04:22:42;;;;;;;13.30;9.15;;;;;;;-140.66;100.00;55571.53;5099102;28;20031;-75
2023/07/08 04:25:28;;;;;;;10.90;8.73;;;;;;;-140.66;100.00;55571.53;5113643;28;20101;-75
2023/07/08 04:28:13;;;;;;;18.00;9.18;;;;;;;-140.66;100.00;55571.53;5114446;28;20031;-76
2023/07/08 04:30:59;;;;;;;14.38;9.75;;;;;;;-140.66;100.00;55571.53;5114248;28;20031;-75
2023/07/08 04:33:45;;;;;;;12.35;9.52;;;;;;;-140.66;100.00;55571.53;5114163;28;20027;-75
2023/07/08 04:36:31;;;;;;;12.13;9.15;;;;;;;-140.66;100.00;55571.53;5099779;28;20024;-75
2023/07/08 04:39:16;;;;;;;14.07;9.23;;;;;;;-140.66;100.00;55571.53;5113556;28;20058;-76
2023/07/08 04:42:02;;;;;;;17.52;9.95;;;;;;;-140.66;100.00;55571.53;5113450;28;20035;-75
2023/07/08 04:44:49;;;;;;;17.38;10.18;;;;;;;-140.66;100.00;55571.53;5114753;28;20039;-74
2023/07/08 04:47:35;;;;;;;13.85;10.65;;;;;;;-140.66;100.00;55571.53;5114209;28;20455;-74
2023/07/08 04:50:22;;;;;;;12.65;9.55;;;;;;;-140.66;100.00;55571.53;5115074;28;20035;-74
2023/07/08 04:53:08;;;;;;;14.40;10.75;;;;;;;-140.66;100.00;55571.53;5114174;28;20042;-75
2023/07/08 04:55:56;;;;;;;17.13;10.63;;;;;;;-140.66;100.00;55571.53;5117724;28;20367;-75
2023/07/08 04:58:41;;;;;;;16.40;11.38;;;;;;;-140.66;100.00;55571.53;5118298;28;20055;-76
2023/07/08 05:01:27;;;;;;;13.60;10.10;;;;;;;-140.66;100.00;55571.53;5118944;28;20031;-75
2023/07/08 05:04:15;;;;;;;12.20;9.23;;;;;;;-140.66;100.00;55571.53;5103750;28;20020;-75
2023/07/08 05:07:01;;;;;;;15.07;9.90;;;;;;;-140.66;100.00;55571.53;5102517;28;20032;-76
2023/07/08 05:09:46;;;;;;;13.48;10.73;;;;;;;-140.66;100.00;55571.53;5116954;28;20437;-75
2023/07/08 05:12:32;;;;;;;14.65;10.98;;;;;;;-140.66;100.00;55571.53;5118128;28;20360;-75
2023/07/08 05:15:18;;;;;;;15.70;10.23;;;;;;;-140.66;100.00;55571.53;5117248;28;20043;-75
2023/07/08 05:18:04;;;;;;;16.42;11.77;;;;;;;-140.66;100.00;55571.53;5117093;28;20027;-74
2023/07/08 05:20:51;;;;;;;15.45;11.88;;;;;;;-140.66;100.00;55571.53;5117315;28;20063;-74
2023/07/08 05:23:37;;;;;;;15.40;12.07;;;;;;;-140.66;100.00;55571.53;5117833;28;20035;-75
2023/07/08 05:26:22;;;;;;;15.48;11.52;;;;;;;-140.66;100.00;55571.53;5117973;28;20034;-75
2023/07/08 05:29:08;;;;;;;13.15;11.00;;;;;;;-140.66;100.00;55571.53;5116911;28;20341;-75
2023/07/08 05:31:54;;;;;;;22.38;12.32;;;;;;;-140.66;100.00;55571.53;5117629;28;20359;-75
2023/07/08 05:34:40;;;;;;;14.05;10.95;;;;;;;-140.66;100.00;55571.53;5117603;28;20118;-75
2023/07/08 05:37:28;;;;;;;17.33;11.70;;;;;;;-140.66;100.00;55571.53;5117399;28;20031;-74
2023/07/08 05:40:14;;;;;;;14.93;10.57;;;;;;;-140.66;100.00;55571.53;5117617;28;20434;-75
2023/07/08 05:42:59;;;;;;;17.88;10.77;;;;;;;-140.66;100.00;55571.53;5117260;28;20054;-75
2023/07/08 05:45:45;;;;;;;16.38;10.63;;;;;;;-140.66;100.00;55571.53;5117978;28;20417;-74
2023/07/08 05:48:31;;;;;;;15.10;10.70;;;;;;;-140.66;100.00;55571.53;5116595;28;20081;-75
2023/07/08 05:51:17;;;;;;;15.35;11.25;;;;;;;-140.66;100.00;55571.53;5117093;28;20035;-74
2023/07/08 05:54:03;;;;;;;16.13;10.82;;;;;;;-140.66;100.00;55571.53;5117576;28;20356;-75
2023/07/08 05:56:49;;;;;;;15.45;11.60;;;;;;;-140.66;100.00;55571.53;5116903;28;20487;-76
2023/07/08 05:59:36;;;;;;;16.90;12.05;;;;;;;-140.66;100.00;55571.53;5117091;28;20031;-75
2023/07/08 06:02:23;;;;;;;18.95;11.90;;;;;;;-140.66;100.00;55571.53;5117225;28;20020;-74
2023/07/08 06:05:09;;;;;;;14.20;10.85;;;;;;;-140.66;100.00;55571.53;5116818;28;20043;-75
2023/07/08 06:07:54;;;;;;;17.88;11.90;;;;;;;-140.66;100.00;55571.53;5117099;28;20032;-75
2023/07/08 06:10:46;;;;;;;20.90;13.52;;;;;;;-140.66;100.00;55571.53;5102026;28;20035;-75
2023/07/08 06:13:31;;;;;;;20.27;13.30;;;;;;;-140.66;100.00;55571.53;5101961;28;20157;-74
2023/07/08 06:16:17;;;;;;;17.23;12.85;;;;;;;-140.66;100.00;55571.53;5116048;28;20396;-74
2023/07/08 06:19:03;;;;;;;19.58;14.13;;;;;;;-140.66;100.00;55571.53;5116749;28;20102;-74
2023/07/08 06:21:49;;;;;;;19.98;15.07;;;;;;;-140.66;100.00;55571.53;5116846;28;20032;-76
2023/07/08 06:24:35;;;;;;;26.50;16.02;;;;;;;-140.66;100.00;55571.53;5116876;28;20019;-75
2023/07/08 06:27:20;;;;;;;19.73;15.00;;;;;;;-140.66;100.00;55571.53;5116360;28;20039;-74
2023/07/08 06:30:08;;;;;;;26.05;16.15;;;;;;;-140.66;100.00;55571.53;5102299;28;20032;-74
2023/07/08 06:32:53;;;;;;;19.98;14.77;;;;;;;-140.66;100.00;55571.53;5116578;28;20085;-74
2023/07/08 06:35:40;;;;;;;20.27;14.23;;;;;;;-140.66;100.00;55571.53;5117395;28;20026;-75
2023/07/08 06:38:26;;;;;;;19.23;13.23;;;;;;;-140.66;100.00;55571.53;5117358;28;20038;-75
2023/07/08 06:41:11;;;;;;;20.38;13.63;;;;;;;-140.66;100.00;55571.53;5115535;28;20077;-74
2023/07/08 06:43:58;;;;;;;14.82;12.40;;;;;;;-140.66;100.00;55571.53;5115612;28;20032;-75
2023/07/08 06:46:44;;;;;;;19.42;14.15;;;;;;;-140.66;100.00;55571.53;5115709;28;20038;-75
2023/07/08 06:49:30;;;;;;;16.05;12.30;;;;;;;-140.66;100.00;55571.53;5115640;28;20047;-76
2023/07/08 06:52:15;;;;;;;15.15;11.65;;;;;;;-140.66;100.00;55571.53;5116154;28;20051;-76
2023/07/08 06:55:02;;;;;;;17.73;12.98;;;;;;;-140.66;100.00;55571.53;5115968;28;20019;-75
2023/07/08 06:57:48;;;;;;;16.50;11.00;;;;;;;-140.66;100.00;55571.53;5116324;28;20337;-75
2023/07/08 07:00:33;;;;;;;13.60;11.63;;;;;;;-140.66;100.00;55571.53;5115601;28;20114;-75
2023/07/08 07:03:19;;;;;;;17.38;11.73;;;;;;;-140.66;100.00;55571.53;5115829;28;20031;-74
2023/07/08 07:06:05;;;;;;;12.93;11.50;;;;;;;-140.66;100.00;55571.53;5116586;28;20019;-75
2023/07/08 07:08:51;;;;;;;12.95;10.90;;;;;;;-140.66;100.00;55571.53;5115639;28;20347;-75
2023/07/08 07:11:36;;;;;;;18.15;11.60;;;;;;;-140.66;100.00;55571.53;5115959;28;20035;-75
2023/07/08 07:14:22;;;;;;;14.68;10.55;;;;;;;-140.66;100.00;55571.53;5115371;28;20023;-75
2023/07/08 07:17:08;;;;;;;9.85;8.60;;;;;;;-140.66;100.00;55571.53;5114722;28;20034;-74
2023/07/08 07:19:54;;;;;;;10.73;8.13;;;;;;;-140.66;100.00;55571.53;5115102;28;20415;-75
2023/07/08 07:22:40;;;;;;;11.60;8.77;;;;;;;-140.66;100.00;55571.53;5100740;28;20057;-75
2023/07/08 07:25:26;;;;;;;13.13;8.43;;;;;;;-140.66;100.00;55571.53;5114719;28;20027;-75
2023/07/08 07:28:11;;;;;;;7.75;6.45;;;;;;;-140.66;100.00;55571.53;5114746;28;20102;-73
2023/07/08 07:30:59;;;;;;;9.68;6.68;;;;;;;-140.66;100.00;55571.53;5100181;28;20034;-75
2023/07/08 07:33:45;;;;;;;7.60;5.55;;;;;;;-140.66;100.00;55571.53;5115714;28;20035;-75
2023/07/08 07:36:31;;;;;;;9.43;5.55;;;;;;;-140.66;100.00;55571.53;5115846;28;20024;-75
2023/07/08 07:39:16;;;;;;;6.03;4.55;;;;;;;-140.66;100.00;55571.53;5115975;28;20111;-75
2023/07/08 07:42:02;;;;;;;7.68;4.72;;;;;;;-140.66;100.00;55571.53;5115058;28;20027;-74
2023/07/08 07:44:48;;;;;;;9.70;5.17;;;;;;;-140.66;100.00;55571.53;5114308;28;20106;-74
2023/07/08 07:47:34;;;;;;;8.13;4.30;;;;;;;-140.66;100.00;55571.53;5114912;28;20019;-75
2023/07/08 07:50:20;;;;;;;4.95;4.18;;;;;;;-140.66;100.00;55571.53;5100453;28;20030;-76
2023/07/08 07:53:06;;;;;;;4.80;4.15;;;;;;;-140.66;100.00;55571.53;5135154;28;20026;-75
2023/07/08 07:55:59;;;;;;;5.53;4.47;;;;;;;-140.66;100.00;55571.53;5117698;28;20446;-75
2023/07/08 07:58:44;;;;;;;5.18;4.57;;;;;;;-140.66;100.00;55571.53;5115177;28;20035;-75
2023/07/08 08:01:30;;;;;;;9.15;4.97;;;;;;;-140.66;100.00;55571.53;5114427;28;20110;-75
2023/07/08 08:04:16;;;;;;;6.55;5.20;;;;;;;-140.66;100.00;55571.53;5114635;28;20084;-74
2023/07/08 08:07:02;;;;;;;7.10;4.93;;;;;;;-140.66;100.00;55571.53;5114760;28;20111;-74
2023/07/08 08:09:48;;;;;;;7.18;5.18;;;;;;;-140.66;100.00;55571.53;5118088;28;20118;-74
2023/07/08 08:12:33;;;;;;;7.88;5.60;;;;;;;-140.66;100.00;55571.53;5130311;28;20055;-74
2023/07/08 08:15:20;;;;;;;6.35;5.20;;;;;;;-140.66;100.00;55571.53;5099579;28;20034;-76
2023/07/08 08:18:06;;;;;;;9.05;5.35;;;;;;;-140.66;100.00;55571.53;5113939;28;20093;-75
2023/07/08 08:20:52;;;;;;;5.68;4.60;;;;;;;-140.66;100.00;55571.53;5113477;28;20047;-75
2023/07/08 08:23:38;;;;;;;7.50;5.05;;;;;;;-140.66;100.00;55571.53;5114463;28;20027;-75
2023/07/08 08:26:23;;;;;;;7.20;5.25;;;;;;;-140.66;100.00;55571.53;5115081;28;20035;-76
2023/07/08 08:29:09;;;;;;;5.93;5.22;;;;;;;-140.66;100.00;55571.53;5106799;28;20410;-75
2023/07/08 08:31:55;;;;;;;6.32;5.47;;;;;;;-140.66;100.00;55571.53;5119102;28;20433;-75
2023/07/08 08:34:40;;;;;;;5.82;5.00;;;;;;;-140.66;100.00;55571.53;5121051;28;20356;-74
2023/07/08 08:37:26;;;;;;;6.25;5.55;;;;;;;-140.66;100.00;55571.53;5120628;28;20055;-75
2023/07/08 08:40:16;;;;;;;5.95;4.90;;;;;;;-140.66;100.00;55571.53;5121058;28;20023;-74
2023/07/08 08:43:05;;;;;;;5.80;3.92;;;;;;;-140.66;100.00;55571.53;5120652;28;20086;-75
2023/07/08 08:45:57;;;;;;;6.60;3.58;;;;;;;-140.66;100.00;55571.53;5121364;28;20456;-75
2023/07/08 08:48:56;;;;;;;4.00;3.22;;;;;;;-140.66;100.00;55571.53;5120653;28;20050;-75
2023/07/08 08:51:42;;;;;;;3.97;3.30;;;;;;;-140.66;100.00;55571.53;5121988;28;20050;-75
2023/07/08 08:54:30;;;;;;;6.75;3.70;;;;;;;-140.66;100.00;55571.53;5120702;28;20115;-75
2023/07/08 08:57:35;;;;;;;6.25;3.45;;;;;;;-140.66;100.00;55571.53;5121999;28;20093;-74
2023/07/08 09:00:44;;;;;;;5.18;3.20;;;;;;;-140.66;100.00;55571.53;5120730;28;20377;-74
2023/07/08 09:03:38;;;;;;;3.65;3.10;;;;;;;-140.66;100.00;55571.53;5121036;28;20062;-75
2023/07/08 09:06:34;;;;;;;4.13;3.15;;;;;;;-140.66;100.00;55571.53;5120659;28;20124;-75
2023/07/08 09:10:06;;;;;;;4.88;2.78;;;;;;;-140.66;100.00;55571.53;5120595;28;20019;-75
2023/07/08 09:12:55;;;;;;;5.55;2.70;;;;;;;-140.66;100.00;55571.53;5121014;28;20037;-75
2023/07/08 09:15:41;;;;;;;3.35;2.47;;;;;;;-140.66;100.00;55571.53;5121417;28;20027;-76
2023/07/08 09:18:35;;;;;;;4.10;3.03;;;;;;;-140.66;100.00;55571.53;5120932;28;20031;-76
2023/07/08 09:21:27;;;;;;;5.60;3.88;;;;;;;-140.66;100.00;55571.53;5071600;28;20047;-75
2023/07/08 09:24:24;;;;;;;4.63;3.10;;;;;;;-140.66;100.00;55571.53;5085482;28;20028;-74
2023/07/08 09:27:10;;;;;;;4.10;3.00;;;;;;;-140.66;100.00;55571.53;5101919;28;20128;-75
2023/07/08 09:29:56;;;;;;;4.18;3.22;;;;;;;-140.66;100.00;55571.53;5101754;28;20091;-75
2023/07/08 09:32:42;;;;;;;3.92;3.17;;;;;;;-140.66;100.00;55571.53;5099436;28;20106;-75
2023/07/08 09:35:37;;;;;;;4.57;3.35;;;;;;;-140.66;100.00;55571.53;5102019;28;20364;-74
2023/07/08 09:38:23;;;;;;;4.88;3.40;;;;;;;-140.66;100.00;55571.53;5084963;28;20024;-75
2023/07/08 09:41:09;;;;;;;4.50;2.92;;;;;;;-140.66;100.00;55571.53;5096835;28;20031;-80
2023/07/08 09:44:12;;;;;;;5.13;3.28;;;;;;;-140.66;100.00;55571.53;5082145;28;20062;-75
2023/07/08 09:46:58;;;;;;;4.68;3.25;;;;;;;-140.66;100.00;55571.53;5096729;28;20020;-75
2023/07/08 09:49:45;;;;;;;3.50;2.97;;;;;;;-140.66;100.00;55571.53;5097162;28;20066;-75
2023/07/08 09:52:31;;;;;;;4.55;2.90;;;;;;;-140.66;100.00;55571.53;5096381;28;20452;-75
2023/07/08 09:55:17;;;;;;;4.35;2.97;;;;;;;-140.66;100.00;55571.53;5096013;28;20046;-75
2023/07/08 09:58:03;;;;;;;3.30;2.90;;;;;;;-140.66;100.00;55571.53;5095347;28;20094;-75
2023/07/08 10:00:54;;;;;;;4.13;3.22;;;;;;;-140.66;100.00;55571.53;5095992;28;20020;-75
2023/07/08 10:03:40;;;;;;;3.20;2.90;;;;;;;-140.66;100.00;55571.53;5095836;28;20093;-75
2023/07/08 10:06:30;;;;;;;4.20;3.00;;;;;;;-140.66;100.00;55571.53;5097162;28;20405;-74
2023/07/08 10:09:20;;;;;;;3.92;3.13;;;;;;;-140.66;100.00;55571.53;5080482;28;20032;-75
2023/07/08 10:12:12;;;;;;;5.00;3.28;;;;;;;-140.66;100.00;55571.53;5095861;28;20029;-75
2023/07/08 10:15:07;;;;;;;5.30;3.05;;;;;;;-140.66;100.00;55571.53;5096191;28;20098;-75
2023/07/08 10:17:54;;;;;;;4.65;3.05;;;;;;;-140.66;100.00;55571.53;5095688;28;20034;-74
2023/07/08 10:20:45;;;;;;;3.78;2.90;;;;;;;-140.66;100.00;55571.53;5114078;28;20058;-74
2023/07/08 10:23:37;;;;;;;3.83;3.22;;;;;;;-140.66;100.00;55571.53;5125245;28;20011;-73
2023/07/08 10:26:31;;;;;;;5.40;3.45;;;;;;;-140.66;100.00;55571.53;5101001;28;20463;-75
2023/07/08 10:29:41;;;;;;;4.57;3.50;;;;;;;-140.66;100.00;55571.53;5116804;28;20344;-75
2023/07/08 10:32:42;;;;;;;4.88;3.63;;;;;;;-140.66;100.00;55571.53;5116949;28;20063;-75
2023/07/08 10:35:33;;;;;;;6.20;2.75;;;;;;;-140.66;100.00;55571.53;5102675;28;20039;-74
2023/07/08 10:38:37;;;;;;;6.43;3.13;;;;;;;-140.66;100.00;55571.53;5116029;28;20020;-75
2023/07/08 10:41:38;;;;;;;4.53;3.35;;;;;;;-140.66;100.00;55571.53;5134069;28;20039;-74
2023/07/08 10:44:37;;;;;;;5.30;3.85;;;;;;;-140.66;100.00;55571.53;5119953;28;20024;-74
2023/07/08 10:47:41;;;;;;;5.68;4.05;;;;;;;-140.66;100.00;55571.53;5119610;28;20031;-75
2023/07/08 10:50:56;;;;;;;6.05;3.50;;;;;;;-140.66;100.00;55571.53;5114899;28;20038;-75
2023/07/08 10:54:24;;;;;;;7.45;4.10;;;;;;;-140.66;100.00;55571.53;5081038;28;20035;-73
2023/07/08 10:58:02;;;;;;;4.10;3.70;;;;;;;-140.66;100.00;55571.53;5116370;28;20101;-75
2023/07/08 11:01:07;;;;;;;5.28;3.90;;;;;;;-140.66;100.00;55571.53;5005204;28;20034;-74
2023/07/08 11:04:01;;;;;;;5.72;4.40;;;;;;;-140.66;100.00;55571.53;5101949;28;20042;-75
2023/07/08 11:06:54;;;;;;;4.97;3.90;;;;;;;-140.66;100.00;55571.53;5101426;28;20027;-74
2023/07/08 11:09:52;;;;;;;5.43;3.90;;;;;;;-140.66;100.00;55571.53;5115500;28;20458;-74
2023/07/08 11:13:00;;;;;;;5.20;4.03;;;;;;;-140.66;100.00;55571.53;5116563;28;20413;-75
2023/07/08 11:15:58;;;;;;;4.85;4.10;;;;;;;-140.66;100.00;55571.53;5115569;28;20038;-75
2023/07/08 11:18:54;;;;;;;4.70;4.03;;;;;;;-140.66;100.00;55571.53;5115871;28;20439;-75
2023/07/08 11:21:52;;;;;;;7.28;4.10;;;;;;;-140.66;100.00;55571.53;5115249;28;20114;-75
2023/07/08 11:24:37;;;;;;;4.45;3.65;;;;;;;-140.66;100.00;55571.53;5116201;28;20023;-75
2023/07/08 11:27:27;;;;;;;5.53;4.57;;;;;;;-140.66;100.00;55571.53;5115345;28;20339;-75
2023/07/08 11:30:20;;;;;;;5.90;4.70;;;;;;;-140.66;100.00;55571.53;5115516;28;20345;-74
2023/07/08 11:33:11;;;;;;;5.60;4.07;;;;;;;-140.66;100.00;55571.53;5113852;28;20114;-75
2023/07/08 11:35:59;;;;;;;5.65;4.85;;;;;;;-140.66;100.00;55571.53;5100125;28;20194;-75
2023/07/08 11:38:56;;;;;;;5.80;4.45;;;;;;;-140.66;100.00;55571.53;5116065;28;20024;-74
2023/07/08 11:41:42;;;;;;;5.20;4.30;;;;;;;-140.66;100.00;55571.53;5099596;28;20106;-74
2023/07/08 11:44:28;;;;;;;5.25;4.50;;;;;;;-140.66;100.00;55571.53;5114517;28;20074;-75
2023/07/08 11:47:37;;;;;;;7.40;5.03;;;;;;;-140.66;100.00;55571.53;5115232;28;20436;-75
2023/07/08 11:50:30;;;;;;;7.53;4.65;;;;;;;-140.66;100.00;55571.53;5114616;28;20051;-74
2023/07/08 11:53:46;;;;;;;11.00;5.28;;;;;;;-140.66;100.00;55571.53;5115716;28;20429;-74
2023/07/08 11:57:00;;;;;;;4.88;4.15;;;;;;;-140.66;100.00;55571.53;5097886;28;20019;-75
2023/07/08 11:59:46;;;;;;;5.20;4.47;;;;;;;-140.66;100.00;55571.53;5114361;28;20027;-75
2023/07/08 12:02:48;;;;;;;5.57;4.38;;;;;;;-140.66;100.00;55571.53;5113722;28;20084;-75
2023/07/08 12:05:38;;;;;;;5.03;4.07;;;;;;;-140.66;100.00;55571.53;5099538;28;20038;-75
2023/07/08 12:08:33;;;;;;;7.80;4.50;;;;;;;-140.66;100.00;55571.53;5114817;28;20023;-75
2023/07/08 12:11:27;;;;;;;6.78;4.30;;;;;;;-140.66;100.00;55571.53;5115230;28;20023;-75
2023/07/08 12:14:14;;;;;;;9.52;5.03;;;;;;;-140.66;100.00;55571.53;5114716;28;20436;-74
2023/07/08 12:17:00;;;;;;;6.22;4.57;;;;;;;-140.66;100.00;55571.53;5114072;28;20030;-75
2023/07/08 12:19:47;;;;;;;9.52;4.63;;;;;;;-140.66;100.00;55571.53;5113989;28;20043;-74
2023/07/08 12:22:33;;;;;;;8.32;4.20;;;;;;;-140.66;100.00;55571.53;5115961;28;20529;-74
2023/07/08 12:25:24;;;;;;;7.20;4.30;;;;;;;-140.66;100.00;55571.53;5114055;28;20032;-75
2023/07/08 12:28:14;;;;;;;7.18;4.20;;;;;;;-140.66;100.00;55571.53;5113392;28;20414;-75
2023/07/08 12:31:00;;;;;;;8.68;4.80;;;;;;;-140.66;100.00;55571.53;5113356;28;20032;-74
2023/07/08 12:33:46;;;;;;;11.30;4.38;;;;;;;-140.66;100.00;55571.53;5113939;28;20035;-74
2023/07/08 12:36:33;;;;;;;7.93;4.65;;;;;;;-140.66;100.00;55571.53;5113322;28;20448;-75
2023/07/08 12:39:19;;;;;;;7.57;4.20;;;;;;;-140.66;100.00;55571.53;5100582;28;20027;-75
2023/07/08 12:42:10;;;;;;;8.13;4.18;;;;;;;-140.66;100.00;55571.53;5113675;28;20031;-75